Time;durP1;ratioP1;P1;durP2;ratioP2;P2;SDS_P1;SDS_P2;PMS_P1;PMS_P2;Temp;Humidity;BMP_temperature;BMP_pressure;BME280_temperature;BME280_humidity;BME280_pressure;Samples;Min_cycle;Max_cycle;Signal;HPM_P1;HPM_P2
2023/04/16 08:19:06;;;;;;;14.63;9.27;;;;;;;;;;4959889;28;20524;-75
2023/04/16 08:21:33;;;;;;;18.77;10.43;;;;;;;;;;4912364;28;20452;-75
2023/04/16 08:23:59;;;;;;;13.93;8.93;;;;;;;;;;4941136;28;20204;-75
2023/04/16 08:26:26;;;;;;;16.27;10.13;;;;;;;;;;4946895;28;20855;-74
2023/04/16 08:28:52;;;;;;;17.37;10.80;;;;;;;;;;4952117;28;20208;-75
2023/04/16 08:31:18;;;;;;;33.13;20.20;;;;;;;;;;4942205;28;20707;-75
2023/04/16 08:33:45;;;;;;;25.60;15.97;;;;;;;;;;4965348;23;20259;-72
2023/04/16 08:36:12;;;;;;;27.53;17.40;;;;;;;;;;4951368;28;20209;-72
2023/04/16 08:38:38;;;;;;;30.37;18.47;;;;;;;;;;4952648;28;20439;-73
2023/04/16 08:41:06;;;;;;;27.97;17.77;;;;;;;;;;4952429;28;20373;-72
2023/04/16 08:43:33;;;;;;;25.70;17.13;;;;;;;;;;4953479;28;21165;-72
2023/04/16 08:46:00;;;;;;;19.60;13.27;;;;;;;;;;4955546;28;20219;-72
2023/04/16 08:48:28;;;;;;;17.13;12.40;;;;;;;;;;4948674;28;20271;-73
2023/04/16 08:50:55;;;;;;;16.03;11.30;;;;;;;;;;4952867;28;20606;-72
2023/04/16 08:53:27;;;;;;;18.63;11.57;;;;;;;;;;4952921;28;20228;-73
2023/04/16 08:55:55;;;;;;;18.60;11.97;;;;;;;;;;4953290;28;20632;-72
2023/04/16 08:58:22;;;;;;;19.17;12.30;;;;;;;;;;4949941;28;20220;-72
2023/04/16 09:00:49;;;;;;;19.47;12.60;;;;;;;;;;4949531;28;20216;-72
2023/04/16 09:03:15;;;;;;;18.10;11.97;;;;;;;;;;4950177;28;22220;-73
2023/04/16 09:05:42;;;;;;;21.10;13.00;;;;;;;;;;4953865;28;20273;-72
2023/04/16 09:08:08;;;;;;;28.27;16.57;;;;;;;;;;4946991;28;20451;-72
2023/04/16 09:10:36;;;;;;;20.93;13.83;;;;;;;;;;4942032;28;20218;-72
2023/04/16 09:13:02;;;;;;;22.67;13.30;;;;;;;;;;4946664;28;20944;-72
2023/04/16 09:15:29;;;;;;;23.03;13.70;;;;;;;;;;4925821;28;20224;-72
2023/04/16 09:17:56;;;;;;;21.33;14.77;;;;;;;;;;4953518;28;20228;-73
2023/04/16 09:20:23;;;;;;;19.77;13.83;;;;;;;;;;4965838;28;20247;-72
2023/04/16 09:22:50;;;;;;;19.20;12.73;;;;;;;;;;4968950;28;20249;-73
2023/04/16 09:25:16;;;;;;;21.30;13.77;;;;;;;;;;4970058;28;20220;-73
2023/04/16 09:27:44;;;;;;;20.00;12.93;;;;;;;;;;4969636;28;20220;-74
2023/04/16 09:30:23;;;;;;;21.40;13.37;;;;;;;;;;4969462;28;20213;-73
2023/04/16 09:32:49;;;;;;;20.50;13.13;;;;;;;;;;4972575;28;20233;-73
2023/04/16 09:35:17;;;;;;;21.77;13.47;;;;;;;;;;4974666;28;20201;-72
2023/04/16 09:37:43;;;;;;;19.40;12.30;;;;;;;;;;4972350;28;20205;-72
2023/04/16 09:40:10;;;;;;;15.17;11.67;;;;;;;;;;4973959;28;20237;-74
2023/04/16 09:42:36;;;;;;;14.23;9.73;;;;;;;;;;4971735;28;21811;-75
2023/04/16 09:45:04;;;;;;;13.93;10.07;;;;;;;;;;4967083;28;20280;-74
2023/04/16 09:47:38;;;;;;;12.93;9.00;;;;;;;;;;4971213;28;20659;-73
2023/04/16 09:50:05;;;;;;;10.40;8.23;;;;;;;;;;4970562;28;20209;-73
2023/04/16 09:52:31;;;;;;;13.30;8.23;;;;;;;;;;4971332;28;20213;-74
2023/04/16 09:54:59;;;;;;;16.20;8.47;;;;;;;;;;4970634;28;20209;-74
2023/04/16 09:57:26;;;;;;;8.23;6.20;;;;;;;;;;4969803;28;20547;-75
2023/04/16 09:59:53;;;;;;;9.83;6.83;;;;;;;;;;4972792;28;20295;-74
2023/04/16 10:02:22;;;;;;;7.00;5.67;;;;;;;;;;4969195;28;20727;-74
2023/04/16 10:04:48;;;;;;;10.73;6.23;;;;;;;;;;4970365;28;20761;-73
2023/04/16 10:07:15;;;;;;;9.03;6.97;;;;;;;;;;4959237;28;20241;-74
2023/04/16 10:09:42;;;;;;;8.43;6.13;;;;;;;;;;4951809;28;20213;-74
2023/04/16 10:12:08;;;;;;;7.83;6.37;;;;;;;;;;4940451;28;20210;-72
2023/04/16 10:14:35;;;;;;;9.23;6.40;;;;;;;;;;4952317;28;20248;-73
2023/04/16 10:17:01;;;;;;;7.77;5.90;;;;;;;;;;4938629;28;20209;-73
2023/04/16 10:19:30;;;;;;;10.13;7.20;;;;;;;;;;4955797;28;20206;-72
2023/04/16 10:21:57;;;;;;;7.90;6.03;;;;;;;;;;4955316;28;20208;-73
2023/04/16 10:24:24;;;;;;;7.20;5.67;;;;;;;;;;4955443;28;20233;-73
2023/04/16 10:26:51;;;;;;;9.10;7.33;;;;;;;;;;4949789;28;20913;-73
2023/04/16 10:29:18;;;;;;;7.23;5.70;;;;;;;;;;4955235;28;20222;-73
2023/04/16 10:31:45;;;;;;;11.43;8.33;;;;;;;;;;4944944;28;20206;-73
2023/04/16 10:34:11;;;;;;;8.73;6.60;;;;;;;;;;4942443;28;20222;-73
2023/04/16 10:36:40;;;;;;;8.57;6.00;;;;;;;;;;4948530;28;20555;-72
2023/04/16 10:39:09;;;;;;;8.13;6.33;;;;;;;;;;4922200;28;20220;-73
2023/04/16 10:41:36;;;;;;;8.50;6.40;;;;;;;;;;4948082;28;20259;-73
2023/04/16 10:44:08;;;;;;;6.87;5.80;;;;;;;;;;4938482;28;20218;-73
2023/04/16 10:46:37;;;;;;;7.03;5.60;;;;;;;;;;4949585;28;20571;-73
2023/04/16 10:49:12;;;;;;;7.67;5.70;;;;;;;;;;4950623;28;20295;-74
2023/04/16 10:51:39;;;;;;;6.13;5.37;;;;;;;;;;4947979;28;20225;-73
2023/04/16 10:54:19;;;;;;;5.27;4.77;;;;;;;;;;4945722;28;20233;-73
2023/04/16 10:56:46;;;;;;;5.83;4.70;;;;;;;;;;4950736;28;20296;-73
2023/04/16 10:59:13;;;;;;;5.37;4.37;;;;;;;;;;4952309;28;20202;-73
2023/04/16 11:01:41;;;;;;;6.13;4.00;;;;;;;;;;4948657;28;21475;-72
2023/04/16 11:04:23;;;;;;;4.13;3.53;;;;;;;;;;4946407;28;20458;-73
2023/04/16 11:07:01;;;;;;;4.10;3.57;;;;;;;;;;4943787;28;20227;-73
2023/04/16 11:09:49;;;;;;;3.90;3.30;;;;;;;;;;4949168;28;20245;-72
2023/04/16 11:12:17;;;;;;;3.37;2.87;;;;;;;;;;4949972;28;20205;-73
2023/04/16 11:14:46;;;;;;;3.67;3.07;;;;;;;;;;4922038;28;20233;-73
2023/04/16 11:17:13;;;;;;;3.63;2.90;;;;;;;;;;4948957;28;20206;-73
2023/04/16 11:19:39;;;;;;;4.93;3.10;;;;;;;;;;4949248;28;20213;-73
2023/04/16 11:22:07;;;;;;;3.33;2.80;;;;;;;;;;4950798;28;20422;-73
2023/04/16 11:24:34;;;;;;;3.60;2.50;;;;;;;;;;4951675;28;20304;-72
2023/04/16 11:27:01;;;;;;;3.67;2.90;;;;;;;;;;4949180;28;20237;-73
2023/04/16 11:29:28;;;;;;;4.13;2.70;;;;;;;;;;4951171;28;20213;-72
2023/04/16 11:31:55;;;;;;;2.70;2.50;;;;;;;;;;4950810;28;20316;-73
2023/04/16 11:34:21;;;;;;;2.80;2.50;;;;;;;;;;4945806;28;20229;-73
2023/04/16 11:36:48;;;;;;;3.80;2.60;;;;;;;;;;4953073;28;20209;-73
2023/04/16 11:39:16;;;;;;;3.27;2.60;;;;;;;;;;4950754;28;20221;-72
2023/04/16 11:41:43;;;;;;;3.23;2.93;;;;;;;;;;4950159;28;20209;-73
2023/04/16 11:44:17;;;;;;;3.37;2.90;;;;;;;;;;4953625;28;20213;-73
2023/04/16 11:46:44;;;;;;;3.60;3.07;;;;;;;;;;4949318;28;20218;-73
2023/04/16 11:49:10;;;;;;;3.90;2.83;;;;;;;;;;4953795;28;20229;-72
2023/04/16 11:51:40;;;;;;;3.23;2.73;;;;;;;;;;4952701;28;20232;-73
2023/04/16 11:54:07;;;;;;;3.43;3.13;;;;;;;;;;4955142;28;20297;-73
2023/04/16 11:56:36;;;;;;;3.37;2.80;;;;;;;;;;4950032;28;20332;-73
2023/04/16 11:59:05;;;;;;;3.43;2.60;;;;;;;;;;4952970;28;20438;-73
2023/04/16 12:01:32;;;;;;;3.47;2.50;;;;;;;;;;4943650;28;20218;-72
2023/04/16 12:04:01;;;;;;;2.40;2.20;;;;;;;;;;4938218;28;20238;-74
2023/04/16 12:06:27;;;;;;;4.23;2.80;;;;;;;;;;4940589;28;20225;-73
2023/04/16 12:08:54;;;;;;;2.90;2.50;;;;;;;;;;4947885;28;20205;-73
2023/04/16 12:11:20;;;;;;;3.97;2.50;;;;;;;;;;4923549;28;20843;-73
2023/04/16 12:14:02;;;;;;;2.50;2.07;;;;;;;;;;4936087;28;20253;-73
2023/04/16 12:16:30;;;;;;;2.40;2.10;;;;;;;;;;4928037;28;20218;-73
2023/04/16 12:19:00;;;;;;;2.77;2.13;;;;;;;;;;4946826;28;20638;-73
2023/04/16 12:21:35;;;;;;;2.87;2.50;;;;;;;;;;4952331;28;20294;-73
2023/04/16 12:24:02;;;;;;;2.87;2.47;;;;;;;;;;4953507;28;20225;-73
2023/04/16 12:26:35;;;;;;;3.37;2.63;;;;;;;;;;4950557;28;20568;-72
2023/04/16 12:29:13;;;;;;;2.33;2.07;;;;;;;;;;4945269;28;20214;-73
2023/04/16 12:31:41;;;;;;;2.40;2.00;;;;;;;;;;4951823;28;20240;-72
2023/04/16 12:34:09;;;;;;;2.27;1.87;;;;;;;;;;4933674;28;20268;-73
2023/04/16 12:36:35;;;;;;;2.50;1.77;;;;;;;;;;4933573;28;20213;-73
2023/04/16 12:39:02;;;;;;;2.33;2.03;;;;;;;;;;4956317;28;20217;-73
2023/04/16 12:41:29;;;;;;;2.00;1.70;;;;;;;;;;4935472;28;20209;-71
2023/04/16 12:44:02;;;;;;;2.63;2.10;;;;;;;;;;4959120;28;20761;-72
2023/04/16 12:46:29;;;;;;;2.63;2.30;;;;;;;;;;4953805;28;20238;-74
2023/04/16 12:48:57;;;;;;;2.60;2.30;;;;;;;;;;4953911;28;20206;-75
2023/04/16 12:51:24;;;;;;;2.23;2.03;;;;;;;;;;4959485;28;20523;-73
2023/04/16 12:53:51;;;;;;;3.37;2.43;;;;;;;;;;4934237;28;20733;-73
2023/04/16 12:56:17;;;;;;;2.10;1.73;;;;;;;;;;4959468;28;20746;-72
2023/04/16 12:58:43;;;;;;;1.80;1.70;;;;;;;;;;4952957;28;20214;-73
2023/04/16 13:01:10;;;;;;;2.13;1.83;;;;;;;;;;4956654;28;20335;-72
2023/04/16 13:03:37;;;;;;;2.20;2.00;;;;;;;;;;4936553;28;20251;-72
2023/04/16 13:06:04;;;;;;;1.67;1.57;;;;;;;;;;4934339;28;20235;-72
2023/04/16 13:08:31;;;;;;;1.57;1.47;;;;;;;;;;4949683;28;20224;-72
2023/04/16 13:10:57;;;;;;;1.70;1.60;;;;;;;;;;4955981;28;20202;-72
2023/04/16 13:13:23;;;;;;;2.57;2.00;;;;;;;;;;4934885;28;20921;-73
2023/04/16 13:15:50;;;;;;;2.57;1.90;;;;;;;;;;4936789;28;20246;-74
2023/04/16 13:18:16;;;;;;;3.40;2.00;;;;;;;;;;4954405;28;20418;-71
2023/04/16 13:20:42;;;;;;;2.70;2.00;;;;;;;;;;4953210;28;20510;-72
2023/04/16 13:23:10;;;;;;;1.70;1.60;;;;;;;;;;4954808;28;20696;-74
2023/04/16 13:25:36;;;;;;;1.47;1.37;;;;;;;;;;4953819;28;20210;-74
2023/04/16 13:28:03;;;;;;;2.10;1.80;;;;;;;;;;4947501;28;20218;-72
2023/04/16 13:30:32;;;;;;;2.10;1.90;;;;;;;;;;4947265;28;20525;-72
2023/04/16 13:32:58;;;;;;;2.23;1.70;;;;;;;;;;4946423;28;20226;-72
2023/04/16 13:35:26;;;;;;;2.50;1.70;;;;;;;;;;4950280;28;20414;-72
2023/04/16 13:37:52;;;;;;;1.97;1.73;;;;;;;;;;4956541;28;20205;-73
2023/04/16 13:40:20;;;;;;;4.67;1.70;;;;;;;;;;4955809;28;20228;-73
2023/04/16 13:42:46;;;;;;;2.03;1.77;;;;;;;;;;4961016;28;20240;-72
2023/04/16 13:45:12;;;;;;;2.00;1.80;;;;;;;;;;4961329;28;20228;-72
2023/04/16 13:47:40;;;;;;;2.17;1.73;;;;;;;;;;4960046;28;20232;-72
2023/04/16 13:50:06;;;;;;;2.30;1.83;;;;;;;;;;4958306;28;20201;-72
2023/04/16 13:52:33;;;;;;;1.97;1.70;;;;;;;;;;4960552;28;20210;-74
2023/04/16 13:55:00;;;;;;;1.83;1.63;;;;;;;;;;4958054;28;20429;-72
2023/04/16 13:57:28;;;;;;;2.57;1.60;;;;;;;;;;4958425;28;20221;-72
2023/04/16 13:59:55;;;;;;;1.53;1.23;;;;;;;;;;4953926;28;20900;-74
2023/04/16 14:02:22;;;;;;;2.60;1.20;;;;;;;;;;4954758;28;20662;-72
2023/04/16 14:04:49;;;;;;;1.50;1.27;;;;;;;;;;4952453;28;20217;-74
2023/04/16 14:07:16;;;;;;;2.17;1.57;;;;;;;;;;4953999;28;20691;-71
2023/04/16 14:09:42;;;;;;;1.63;1.40;;;;;;;;;;4950360;28;20210;-72
2023/04/16 14:12:09;;;;;;;1.37;1.20;;;;;;;;;;4936724;28;20221;-73
2023/04/16 14:14:38;;;;;;;1.53;1.40;;;;;;;;;;4951794;28;20225;-74
2023/04/16 14:17:06;;;;;;;1.20;1.10;;;;;;;;;;4955768;28;20225;-74
2023/04/16 14:19:32;;;;;;;1.57;1.47;;;;;;;;;;4956237;28;20217;-74
2023/04/16 14:21:59;;;;;;;1.10;1.00;;;;;;;;;;4960945;28;20610;-72
2023/04/16 14:24:25;;;;;;;1.57;1.40;;;;;;;;;;4959852;28;20217;-75
2023/04/16 14:26:52;;;;;;;1.50;1.40;;;;;;;;;;4935402;28;20408;-74
2023/04/16 14:29:18;;;;;;;1.30;1.20;;;;;;;;;;4952976;28;20717;-73
2023/04/16 14:31:46;;;;;;;1.73;1.60;;;;;;;;;;4951959;28;20660;-73
2023/04/16 14:36:41;;;;;;;1.80;1.57;;;;;;;;;;4968264;28;20229;-73
2023/04/16 14:39:08;;;;;;;2.13;1.87;;;;;;;;;;4967621;28;20205;-73
2023/04/16 14:41:34;;;;;;;2.37;1.83;;;;;;;;;;4967519;28;20703;-73
2023/04/16 14:44:03;;;;;;;2.00;1.80;;;;;;;;;;4968786;28;20318;-73
2023/04/16 14:46:29;;;;;;;2.47;2.03;;;;;;;;;;4969629;28;20263;-73
2023/04/16 14:48:56;;;;;;;2.10;1.90;;;;;;;;;;4969667;28;20223;-73
2023/04/16 14:51:23;;;;;;;2.57;2.10;;;;;;;;;;4968638;28;20212;-73
2023/04/16 14:53:49;;;;;;;2.40;1.90;;;;;;;;;;4973212;28;20230;-73
2023/04/16 14:56:15;;;;;;;2.40;2.00;;;;;;;;;;4973597;28;20710;-73
2023/04/16 14:58:42;;;;;;;2.10;1.90;;;;;;;;;;4970858;28;20208;-73
2023/04/16 15:01:08;;;;;;;1.93;1.73;;;;;;;;;;4963189;28;20291;-73
2023/04/16 15:03:35;;;;;;;1.90;1.80;;;;;;;;;;4963679;28;20228;-73
2023/04/16 15:06:03;;;;;;;2.83;1.83;;;;;;;;;;4973211;28;20686;-73
2023/04/16 15:08:30;;;;;;;2.53;2.20;;;;;;;;;;4949750;28;20208;-73
2023/04/16 15:10:56;;;;;;;2.07;1.87;;;;;;;;;;4970787;28;20211;-73
2023/04/16 15:13:23;;;;;;;2.20;1.97;;;;;;;;;;4969004;28;20242;-73
2023/04/16 15:15:49;;;;;;;2.10;1.90;;;;;;;;;;4966441;28;20236;-73
2023/04/16 15:18:16;;;;;;;1.90;1.77;;;;;;;;;;4973749;28;20202;-73
2023/04/16 15:20:42;;;;;;;2.37;2.10;;;;;;;;;;4969139;28;20248;-73
2023/04/16 15:23:10;;;;;;;2.23;2.03;;;;;;;;;;4968242;28;20254;-73
2023/04/16 15:25:36;;;;;;;2.20;2.00;;;;;;;;;;4969363;28;20273;-73
2023/04/16 15:28:02;;;;;;;2.77;2.30;;;;;;;;;;4972434;28;20228;-73
2023/04/16 15:30:29;;;;;;;2.37;2.17;;;;;;;;;;4972710;28;20889;-74
2023/04/16 15:32:56;;;;;;;2.37;2.17;;;;;;;;;;4972996;28;20221;-73
2023/04/16 15:35:22;;;;;;;2.50;2.30;;;;;;;;;;4968690;28;20240;-73
2023/04/16 15:37:51;;;;;;;3.37;2.60;;;;;;;;;;4971346;28;20213;-73
2023/04/16 15:40:19;;;;;;;3.40;2.83;;;;;;;;;;4965593;28;20213;-73
2023/04/16 15:42:45;;;;;;;2.83;2.50;;;;;;;;;;4965329;28;20213;-74
2023/04/16 15:45:11;;;;;;;3.10;2.80;;;;;;;;;;4970286;28;20671;-73
2023/04/16 15:47:38;;;;;;;2.80;2.53;;;;;;;;;;4964488;28;20236;-74
2023/04/16 15:50:05;;;;;;;2.97;2.67;;;;;;;;;;4971000;28;20205;-74
2023/04/16 15:52:31;;;;;;;4.10;3.17;;;;;;;;;;4968051;28;20284;-74
2023/04/16 15:54:58;;;;;;;3.87;3.53;;;;;;;;;;4972089;28;20513;-74
2023/04/16 15:57:26;;;;;;;3.87;3.43;;;;;;;;;;4971148;28;20698;-74
2023/04/16 15:59:53;;;;;;;4.23;3.83;;;;;;;;;;4972441;28;20223;-74
2023/04/16 16:02:19;;;;;;;4.53;3.90;;;;;;;;;;4971773;28;20201;-74
2023/04/16 16:04:45;;;;;;;4.33;3.80;;;;;;;;;;4958242;28;20281;-74
2023/04/16 16:07:14;;;;;;;5.10;4.13;;;;;;;;;;4972052;28;20206;-73
2023/04/16 16:09:41;;;;;;;5.30;4.47;;;;;;;;;;4966700;28;20331;-74
2023/04/16 16:12:07;;;;;;;4.90;3.90;;;;;;;;;;4972992;28;20201;-74
2023/04/16 16:14:35;;;;;;;4.40;4.00;;;;;;;;;;4972616;28;20284;-74
2023/04/16 16:17:01;;;;;;;4.70;4.23;;;;;;;;;;4974620;28;20206;-74
2023/04/16 16:19:27;;;;;;;5.50;4.10;;;;;;;;;;4956388;28;20214;-74
2023/04/16 16:21:54;;;;;;;5.57;4.83;;;;;;;;;;4955023;28;20267;-74
2023/04/16 16:24:21;;;;;;;7.27;5.13;;;;;;;;;;4972385;28;20229;-73
2023/04/16 16:26:47;;;;;;;6.67;4.97;;;;;;;;;;4967960;28;20199;-73
2023/04/16 16:29:13;;;;;;;7.20;5.10;;;;;;;;;;4972711;28;20220;-74
2023/04/16 16:31:41;;;;;;;6.83;5.17;;;;;;;;;;4974660;28;20355;-73
2023/04/16 16:34:08;;;;;;;5.30;4.33;;;;;;;;;;4973511;28;20225;-73
2023/04/16 16:36:35;;;;;;;4.57;4.10;;;;;;;;;;4972454;28;20604;-73
2023/04/16 16:39:02;;;;;;;5.30;4.13;;;;;;;;;;4971460;28;20214;-72
2023/04/16 16:41:30;;;;;;;6.13;4.17;;;;;;;;;;4965099;28;20331;-73
2023/04/16 16:43:57;;;;;;;4.43;4.03;;;;;;;;;;4968396;28;20225;-73
2023/04/16 16:46:24;;;;;;;4.93;4.13;;;;;;;;;;4961770;28;20210;-73
2023/04/16 16:48:52;;;;;;;5.67;4.40;;;;;;;;;;4969776;28;20220;-73
2023/04/16 16:51:18;;;;;;;4.53;4.07;;;;;;;;;;4949214;28;20221;-73
2023/04/16 16:53:45;;;;;;;5.30;4.30;;;;;;;;;;4966726;28;20241;-74
2023/04/16 16:56:12;;;;;;;4.30;3.90;;;;;;;;;;4973103;28;20210;-73
2023/04/16 16:58:38;;;;;;;5.50;4.50;;;;;;;;;;4972020;28;20575;-74
2023/04/16 17:01:04;;;;;;;4.70;4.20;;;;;;;;;;4969557;28;20210;-73
2023/04/16 17:03:30;;;;;;;6.23;5.10;;;;;;;;;;4968204;28;20240;-73
2023/04/16 17:05:58;;;;;;;5.97;5.17;;;;;;;;;;4971026;28;20212;-73
2023/04/16 17:08:24;;;;;;;6.03;4.83;;;;;;;;;;4971879;28;20707;-74
2023/04/16 17:10:51;;;;;;;5.70;5.10;;;;;;;;;;4973323;28;21415;-73
2023/04/16 17:13:18;;;;;;;5.73;4.90;;;;;;;;;;4974532;28;20720;-73
2023/04/16 17:15:44;;;;;;;6.07;5.07;;;;;;;;;;4968290;28;20304;-73
2023/04/16 17:18:11;;;;;;;6.73;5.33;;;;;;;;;;4970190;28;20223;-73
2023/04/16 17:20:37;;;;;;;5.53;4.90;;;;;;;;;;4970049;28;20228;-73
2023/04/16 17:23:05;;;;;;;6.80;5.77;;;;;;;;;;4970719;28;20209;-73
2023/04/16 17:25:31;;;;;;;6.40;5.53;;;;;;;;;;4967422;28;20383;-73
2023/04/16 17:27:58;;;;;;;9.47;7.20;;;;;;;;;;4966020;28;20206;-73
2023/04/16 17:30:26;;;;;;;9.87;8.00;;;;;;;;;;4947422;28;20216;-73
2023/04/16 17:32:53;;;;;;;6.53;5.87;;;;;;;;;;4949121;28;20300;-73
2023/04/16 17:35:20;;;;;;;7.23;5.77;;;;;;;;;;4967434;28;20229;-73
2023/04/16 17:37:47;;;;;;;7.07;5.73;;;;;;;;;;4971673;28;20691;-73
2023/04/16 17:40:17;;;;;;;12.23;9.23;;;;;;;;;;4971116;28;20212;-73
2023/04/16 17:42:43;;;;;;;8.60;6.77;;;;;;;;;;4972046;28;20595;-73
2023/04/16 17:45:10;;;;;;;10.03;7.77;;;;;;;;;;4974567;28;20224;-72
2023/04/16 17:47:37;;;;;;;8.40;6.73;;;;;;;;;;4963225;28;20235;-74
2023/04/16 17:50:04;;;;;;;7.43;5.50;;;;;;;;;;4975302;28;20394;-73
2023/04/16 17:52:31;;;;;;;5.90;5.13;;;;;;;;;;4971058;28;20201;-73
2023/04/16 17:55:00;;;;;;;6.27;5.60;;;;;;;;;;4973018;28;20233;-73
2023/04/16 17:57:28;;;;;;;6.50;5.27;;;;;;;;;;4973379;28;20200;-73
2023/04/16 17:59:55;;;;;;;7.40;5.80;;;;;;;;;;4954366;28;20710;-73
2023/04/16 18:02:22;;;;;;;7.63;6.00;;;;;;;;;;4967085;28;20696;-73
2023/04/16 18:04:48;;;;;;;9.57;5.87;;;;;;;;;;4971246;28;20240;-73
2023/04/16 18:07:15;;;;;;;8.80;6.37;;;;;;;;;;4972918;28;20205;-73
2023/04/16 18:09:41;;;;;;;6.77;5.70;;;;;;;;;;4970228;28;20208;-73
2023/04/16 18:12:07;;;;;;;7.47;5.77;;;;;;;;;;4971141;28;20605;-73
2023/04/16 18:14:35;;;;;;;7.60;5.83;;;;;;;;;;4970518;28;20237;-73
2023/04/16 18:17:02;;;;;;;6.50;5.37;;;;;;;;;;4974323;28;20641;-73
2023/04/16 18:19:29;;;;;;;8.20;5.67;;;;;;;;;;4973958;28;20552;-73
2023/04/16 18:21:55;;;;;;;6.33;5.40;;;;;;;;;;4972869;28;20212;-72
2023/04/16 18:24:21;;;;;;;7.90;5.43;;;;;;;;;;4975853;28;20229;-73
2023/04/16 18:26:48;;;;;;;6.93;5.10;;;;;;;;;;4973953;28;20213;-73
2023/04/16 18:29:14;;;;;;;9.10;5.83;;;;;;;;;;4973608;28;20215;-73
2023/04/16 18:31:42;;;;;;;9.37;6.20;;;;;;;;;;4972782;28;20208;-73
2023/04/16 18:34:08;;;;;;;9.77;6.90;;;;;;;;;;4975230;28;20247;-73
2023/04/16 18:36:34;;;;;;;10.17;6.77;;;;;;;;;;4974308;28;20348;-73
2023/04/16 18:39:00;;;;;;;9.93;7.13;;;;;;;;;;4971510;28;20205;-73
2023/04/16 18:41:26;;;;;;;13.43;7.70;;;;;;;;;;4970229;28;20668;-73
2023/04/16 18:43:53;;;;;;;12.27;8.13;;;;;;;;;;4969950;28;20223;-72
2023/04/16 18:46:19;;;;;;;10.67;7.60;;;;;;;;;;4973344;28;20335;-72
2023/04/16 18:48:47;;;;;;;13.10;8.17;;;;;;;;;;4977136;28;20260;-73
2023/04/16 18:51:13;;;;;;;9.70;7.33;;;;;;;;;;4973933;28;20204;-73
2023/04/16 18:53:41;;;;;;;11.10;7.70;;;;;;;;;;4973803;28;20233;-73
2023/04/16 18:56:07;;;;;;;10.77;7.77;;;;;;;;;;4974355;28;20796;-73
2023/04/16 18:58:34;;;;;;;10.17;7.70;;;;;;;;;;4974530;28;20898;-73
2023/04/16 19:01:00;;;;;;;9.67;7.20;;;;;;;;;;4970061;28;20232;-73
2023/04/16 19:03:28;;;;;;;10.23;7.17;;;;;;;;;;4965979;28;20249;-73
2023/04/16 19:05:56;;;;;;;9.03;6.73;;;;;;;;;;4968835;28;20268;-73
2023/04/16 19:08:22;;;;;;;8.93;6.73;;;;;;;;;;4974317;28;20196;-72
2023/04/16 19:10:49;;;;;;;10.33;6.87;;;;;;;;;;4957703;28;20318;-72
2023/04/16 19:13:15;;;;;;;8.73;7.13;;;;;;;;;;4977100;28;20236;-72
2023/04/16 19:15:42;;;;;;;8.87;5.97;;;;;;;;;;4958128;28;20267;-72
2023/04/16 19:18:08;;;;;;;9.40;6.73;;;;;;;;;;4973112;28;20224;-72
2023/04/16 19:20:35;;;;;;;9.47;6.67;;;;;;;;;;4974934;28;20205;-72
2023/04/16 19:23:04;;;;;;;7.57;6.27;;;;;;;;;;4968053;28;20210;-73
2023/04/16 19:25:30;;;;;;;8.07;6.10;;;;;;;;;;4964856;28;20212;-72
2023/04/16 19:27:57;;;;;;;8.17;6.23;;;;;;;;;;4970457;28;20291;-72
2023/04/16 19:30:23;;;;;;;7.50;6.00;;;;;;;;;;4955627;28;24620;-73
2023/04/16 19:32:50;;;;;;;8.33;5.90;;;;;;;;;;4951045;28;20691;-74
2023/04/16 19:35:16;;;;;;;7.50;5.73;;;;;;;;;;4973134;28;20726;-74
2023/04/16 19:37:43;;;;;;;9.80;6.10;;;;;;;;;;4964148;28;20232;-72
2023/04/16 19:40:11;;;;;;;7.67;5.73;;;;;;;;;;4971983;28;20225;-72
2023/04/16 19:42:37;;;;;;;8.40;5.80;;;;;;;;;;4967638;28;20719;-72
2023/04/16 19:45:04;;;;;;;8.97;5.97;;;;;;;;;;4962748;28;20228;-72
2023/04/16 19:47:30;;;;;;;9.50;6.70;;;;;;;;;;4968722;28;20200;-74
2023/04/16 19:49:57;;;;;;;7.63;5.67;;;;;;;;;;4966483;28;20308;-74
2023/04/16 19:52:23;;;;;;;9.20;5.90;;;;;;;;;;4967283;28;20227;-74
2023/04/16 19:54:50;;;;;;;7.03;5.03;;;;;;;;;;4969101;28;20641;-74
2023/04/16 19:57:18;;;;;;;7.03;5.37;;;;;;;;;;4970232;28;20699;-74
2023/04/16 19:59:44;;;;;;;8.67;5.47;;;;;;;;;;4971884;28;20212;-73
2023/04/16 20:02:11;;;;;;;6.87;5.70;;;;;;;;;;4970542;28;20209;-74
2023/04/16 20:04:37;;;;;;;8.13;5.70;;;;;;;;;;4969782;28;20236;-74
2023/04/16 20:07:03;;;;;;;14.93;7.37;;;;;;;;;;4975462;28;20486;-74
2023/04/16 20:09:30;;;;;;;10.17;5.90;;;;;;;;;;4969510;28;20216;-74
2023/04/16 20:11:57;;;;;;;8.77;5.80;;;;;;;;;;4964817;28;20267;-73
2023/04/16 20:14:24;;;;;;;7.33;5.53;;;;;;;;;;4968908;28;20453;-74
2023/04/16 20:16:51;;;;;;;8.50;6.40;;;;;;;;;;4968691;28;20670;-74
2023/04/16 20:19:18;;;;;;;8.83;5.97;;;;;;;;;;4969090;28;20296;-74
2023/04/16 20:21:45;;;;;;;8.17;5.83;;;;;;;;;;4969001;28;20203;-74
2023/04/16 20:24:11;;;;;;;6.20;5.30;;;;;;;;;;4966782;28;20229;-74
2023/04/16 20:26:37;;;;;;;6.90;5.23;;;;;;;;;;4969749;28;20219;-74
2023/04/16 20:29:04;;;;;;;7.13;5.00;;;;;;;;;;4968712;28;20223;-74
2023/04/16 20:31:31;;;;;;;7.30;5.57;;;;;;;;;;4963600;28;20567;-74
2023/04/16 20:33:57;;;;;;;7.03;5.50;;;;;;;;;;4971933;28;20240;-74
2023/04/16 20:36:24;;;;;;;6.47;5.47;;;;;;;;;;4970666;28;20497;-74
2023/04/16 20:38:52;;;;;;;8.20;5.67;;;;;;;;;;4971551;28;20712;-74
2023/04/16 20:41:20;;;;;;;6.23;5.20;;;;;;;;;;4992732;22;20625;-71
2023/04/16 20:43:48;;;;;;;8.67;5.07;;;;;;;;;;4984672;28;20465;-74
2023/04/16 20:46:15;;;;;;;7.33;5.30;;;;;;;;;;4984437;28;20418;-72
2023/04/16 20:48:43;;;;;;;6.90;5.53;;;;;;;;;;4984380;28;20229;-73
2023/04/16 20:51:09;;;;;;;6.70;5.27;;;;;;;;;;4968575;28;20587;-75
2023/04/16 20:53:36;;;;;;;6.63;5.17;;;;;;;;;;4984643;28;20216;-72
2023/04/16 20:56:03;;;;;;;6.83;4.93;;;;;;;;;;4966229;28;20620;-74
2023/04/16 20:58:29;;;;;;;7.10;4.90;;;;;;;;;;4985754;28;20231;-71
2023/04/16 21:00:56;;;;;;;6.73;5.13;;;;;;;;;;4986500;28;20188;-71
2023/04/16 21:03:23;;;;;;;5.67;4.30;;;;;;;;;;4985055;28;20207;-74
2023/04/16 21:05:52;;;;;;;6.77;4.43;;;;;;;;;;4984296;28;20641;-75
2023/04/16 21:08:18;;;;;;;8.73;5.20;;;;;;;;;;4999857;23;20326;-73
2023/04/16 21:10:45;;;;;;;7.57;4.07;;;;;;;;;;4984295;28;20234;-75
2023/04/16 21:13:11;;;;;;;4.43;4.00;;;;;;;;;;5012957;28;20217;-75
2023/04/16 21:15:37;;;;;;;5.03;4.30;;;;;;;;;;4974157;28;20238;-75
2023/04/16 21:18:04;;;;;;;4.57;3.70;;;;;;;;;;4987081;28;20298;-75
2023/04/16 21:20:30;;;;;;;4.83;3.97;;;;;;;;;;4987284;28;20410;-75
2023/04/16 21:22:58;;;;;;;5.37;4.17;;;;;;;;;;4990129;28;20222;-75
2023/04/16 21:25:24;;;;;;;5.73;4.60;;;;;;;;;;4992229;28;20213;-74
2023/04/16 21:27:50;;;;;;;7.87;4.23;;;;;;;;;;4989388;28;20212;-75
2023/04/16 21:30:17;;;;;;;6.43;4.87;;;;;;;;;;4990098;28;20214;-75
2023/04/16 21:32:43;;;;;;;6.37;4.63;;;;;;;;;;4992768;28;20799;-75
2023/04/16 21:35:10;;;;;;;5.97;5.03;;;;;;;;;;4991344;28;20286;-74
2023/04/16 21:37:36;;;;;;;6.40;4.83;;;;;;;;;;4991765;28;20227;-75
2023/04/16 21:40:04;;;;;;;5.30;4.47;;;;;;;;;;4991886;28;20210;-75
2023/04/16 21:42:31;;;;;;;6.77;5.20;;;;;;;;;;4978791;28;20298;-76
2023/04/16 21:44:57;;;;;;;5.87;4.33;;;;;;;;;;4994563;28;20239;-75
2023/04/16 21:47:24;;;;;;;6.33;4.90;;;;;;;;;;4987632;28;20208;-75
2023/04/16 21:49:50;;;;;;;5.17;4.40;;;;;;;;;;4990396;28;20368;-75
2023/04/16 21:52:17;;;;;;;6.53;5.17;;;;;;;;;;4987689;28;20262;-75
2023/04/16 21:54:44;;;;;;;6.23;5.07;;;;;;;;;;4975694;28;20669;-75
2023/04/16 21:57:11;;;;;;;5.30;4.53;;;;;;;;;;4977313;28;20823;-75
2023/04/16 21:59:38;;;;;;;5.87;4.60;;;;;;;;;;4991896;28;20198;-76
2023/04/16 22:02:05;;;;;;;6.00;5.00;;;;;;;;;;4988895;28;20546;-75
2023/04/16 22:04:37;;;;;;;5.47;4.57;;;;;;;;;;4994516;28;20207;-75
2023/04/16 22:07:04;;;;;;;4.90;4.40;;;;;;;;;;4995716;28;20227;-75
2023/04/16 22:09:31;;;;;;;9.03;4.60;;;;;;;;;;4987628;28;20306;-75
2023/04/16 22:11:59;;;;;;;4.77;3.97;;;;;;;;;;4986063;28;20307;-75
2023/04/16 22:14:28;;;;;;;6.73;4.20;;;;;;;;;;4981712;28;20207;-75
2023/04/16 22:16:55;;;;;;;5.80;4.20;;;;;;;;;;4990226;28;20579;-75
2023/04/16 22:19:21;;;;;;;5.73;4.60;;;;;;;;;;4990450;28;20222;-75
2023/04/16 22:21:48;;;;;;;5.00;4.17;;;;;;;;;;4989158;28;20509;-75
2023/04/16 22:24:14;;;;;;;7.13;4.53;;;;;;;;;;4977853;28;20209;-75
2023/04/16 22:26:41;;;;;;;4.80;4.30;;;;;;;;;;4993896;28;20260;-75
2023/04/16 22:29:07;;;;;;;6.03;4.80;;;;;;;;;;4994070;28;20219;-75
2023/04/16 22:31:35;;;;;;;5.97;5.00;;;;;;;;;;4992884;28;20231;-75
2023/04/16 22:34:02;;;;;;;6.40;4.70;;;;;;;;;;4969271;28;20196;-75
2023/04/16 22:36:28;;;;;;;5.23;4.10;;;;;;;;;;4988015;28;20697;-76
2023/04/16 22:38:54;;;;;;;4.43;4.00;;;;;;;;;;4987081;28;20219;-75
2023/04/16 22:41:21;;;;;;;5.20;4.70;;;;;;;;;;4987831;28;20231;-75
2023/04/16 22:43:47;;;;;;;6.47;5.30;;;;;;;;;;4991114;28;20398;-75
2023/04/16 22:46:14;;;;;;;4.93;4.07;;;;;;;;;;4975142;28;20242;-75
2023/04/16 22:48:42;;;;;;;5.60;4.20;;;;;;;;;;4977172;28;20296;-75
2023/04/16 22:51:08;;;;;;;6.50;4.63;;;;;;;;;;4982315;28;20737;-75
2023/04/16 22:53:35;;;;;;;5.20;4.00;;;;;;;;;;4988741;28;20520;-75
2023/04/16 22:56:01;;;;;;;6.80;4.90;;;;;;;;;;4986709;28;20756;-75
2023/04/16 22:58:28;;;;;;;5.33;4.23;;;;;;;;;;4993418;28;20227;-75
2023/04/16 23:00:55;;;;;;;5.63;4.77;;;;;;;;;;4990980;28;20255;-75